createdAt,value
2017-08-15T00:00:22.149Z,94.90
2017-08-15T00:02:49.786Z,94.90
2017-08-15T00:05:17.441Z,95.00
2017-08-15T00:07:45.029Z,95.30
2017-08-15T00:10:12.623Z,95.20
2017-08-15T00:12:40.293Z,95.10
2017-08-15T00:15:08.639Z,95.40
2017-08-15T00:17:36.255Z,95.40
2017-08-15T00:20:03.904Z,95.30
2017-08-15T00:22:31.604Z,95.30
2017-08-15T00:24:59.243Z,95.10
2017-08-15T00:27:26.815Z,94.50
2017-08-15T00:29:54.479Z,94.60
2017-08-15T00:32:22.170Z,94.70
2017-08-15T00:34:49.771Z,94.70
2017-08-15T00:37:17.579Z,95.00
2017-08-15T00:39:45.190Z,95.10
2017-08-15T00:42:13.541Z,95.10
2017-08-15T00:44:51.134Z,95.10
2017-08-15T00:47:18.741Z,94.60
2017-08-15T00:49:46.379Z,94.50
2017-08-15T00:52:15.086Z,94.90
2017-08-15T00:54:42.671Z,94.90
2017-08-15T00:57:10.385Z,94.80
2017-08-15T00:59:37.982Z,94.90
2017-08-15T01:02:05.569Z,94.80
2017-08-15T01:04:33.185Z,95.00
2017-08-15T01:07:00.906Z,94.80
2017-08-15T01:09:28.502Z,94.80
2017-08-15T01:11:56.082Z,94.80
2017-08-15T01:14:23.780Z,94.80
2017-08-15T01:16:51.360Z,94.90
2017-08-15T01:19:19.709Z,94.90
2017-08-15T01:21:47.413Z,94.80
2017-08-15T01:24:15.061Z,94.60
2017-08-15T01:26:42.680Z,94.60
2017-08-15T01:29:10.293Z,94.30
2017-08-15T01:31:37.896Z,94.60
2017-08-15T01:34:05.473Z,94.40
2017-08-15T01:36:33.086Z,94.60
2017-08-15T01:39:00.685Z,94.70
2017-08-15T01:41:29.059Z,94.60
2017-08-15T01:43:56.673Z,94.60
2017-08-15T01:46:24.328Z,94.60
2017-08-15T01:48:51.929Z,94.60
2017-08-15T01:51:19.557Z,94.60
2017-08-15T01:53:47.246Z,94.70
2017-08-15T01:56:14.841Z,94.60
2017-08-15T01:58:42.439Z,94.60
2017-08-15T02:01:10.053Z,94.80
2017-08-15T02:03:37.668Z,94.80
2017-08-15T02:06:05.283Z,94.80
2017-08-15T02:08:32.909Z,94.70
2017-08-15T02:11:00.613Z,94.80
2017-08-15T02:13:29.138Z,95.00
2017-08-15T02:15:56.713Z,95.00
2017-08-15T02:18:24.293Z,95.20
2017-08-15T02:20:52.033Z,94.80
2017-08-15T02:23:19.607Z,94.80
2017-08-15T02:25:47.215Z,94.70
2017-08-15T02:28:14.857Z,94.80
2017-08-15T02:30:43.277Z,94.70
2017-08-15T02:33:10.858Z,94.70
2017-08-15T02:35:38.470Z,94.70
2017-08-15T02:38:06.122Z,94.70
2017-08-15T02:40:33.714Z,95.00
2017-08-15T02:43:01.326Z,95.20
2017-08-15T02:45:29.274Z,94.90
2017-08-15T02:47:56.856Z,94.80
2017-08-15T02:50:25.219Z,95.10
2017-08-15T02:52:52.784Z,95.10
2017-08-15T02:55:20.382Z,95.30
2017-08-15T02:57:56.527Z,95.30
2017-08-15T03:00:24.114Z,95.00
2017-08-15T03:02:51.723Z,94.90
2017-08-15T03:05:19.356Z,95.00
2017-08-15T03:07:46.931Z,95.20
2017-08-15T03:10:14.648Z,95.00
2017-08-15T03:12:42.415Z,95.10
2017-08-15T03:15:09.987Z,95.20
2017-08-15T03:17:37.578Z,95.30
2017-08-15T03:20:05.256Z,95.30
2017-08-15T03:22:32.840Z,95.20
2017-08-15T03:25:00.426Z,95.10
2017-08-15T03:27:28.129Z,94.80
2017-08-15T03:30:13.900Z,94.80
2017-08-15T03:32:41.631Z,94.70
2017-08-15T03:35:09.221Z,95.30
2017-08-15T03:37:36.822Z,95.30
2017-08-15T03:40:04.460Z,95.10
2017-08-15T03:42:32.109Z,95.10
2017-08-15T03:45:00.466Z,95.00
2017-08-15T03:47:28.232Z,94.70
2017-08-15T03:49:55.848Z,95.20
2017-08-15T03:52:23.450Z,95.10
2017-08-15T03:54:51.055Z,95.00
2017-08-15T03:57:18.682Z,95.00
2017-08-15T03:59:46.242Z,94.80
2017-08-15T04:02:13.837Z,94.70
2017-08-15T04:04:49.154Z,94.70
2017-08-15T04:07:22.553Z,94.70
2017-08-15T04:09:50.196Z,94.90
2017-08-15T04:12:17.865Z,95.00
2017-08-15T04:14:45.505Z,95.30
2017-08-15T04:17:13.121Z,95.30
2017-08-15T04:19:40.847Z,95.60
2017-08-15T04:22:10.122Z,95.30
2017-08-15T04:24:37.718Z,95.30
2017-08-15T04:27:06.074Z,94.90
2017-08-15T04:29:33.792Z,94.90
2017-08-15T04:32:01.369Z,94.90
2017-08-15T04:34:29.032Z,95.10
2017-08-15T04:36:56.800Z,95.10
2017-08-15T04:39:24.450Z,95.20
2017-08-15T04:41:52.045Z,95.30
2017-08-15T04:44:19.682Z,95.40
2017-08-15T04:46:47.332Z,94.80
2017-08-15T04:49:14.937Z,94.90
2017-08-15T04:51:43.734Z,94.90
2017-08-15T04:54:11.393Z,95.10
2017-08-15T04:56:38.975Z,95.00
2017-08-15T04:59:06.593Z,94.90
2017-08-15T05:01:34.935Z,95.20
2017-08-15T05:04:02.547Z,94.90
2017-08-15T05:06:30.988Z,94.40
2017-08-15T05:08:58.580Z,94.40
2017-08-15T05:11:26.911Z,94.20
2017-08-15T05:13:54.616Z,94.20
2017-08-15T05:16:23.196Z,92.90
2017-08-15T05:18:51.634Z,92.60
2017-08-15T05:21:19.237Z,92.60
2017-08-15T05:23:46.864Z,92.70
2017-08-15T05:26:14.449Z,92.60
2017-08-15T05:28:42.833Z,92.30
2017-08-15T05:31:11.193Z,92.40
2017-08-15T05:33:38.909Z,92.40
2017-08-15T05:36:10.489Z,92.90
2017-08-15T05:38:38.150Z,92.80
2017-08-15T05:41:05.732Z,92.90
2017-08-15T05:43:33.348Z,92.90
2017-08-15T05:46:00.995Z,92.70
2017-08-15T05:48:28.574Z,92.50
2017-08-15T05:50:56.191Z,92.30
2017-08-15T05:53:23.871Z,92.60
2017-08-15T05:55:51.789Z,92.50
2017-08-15T06:01:36.798Z,91.70
2017-08-15T06:04:06.622Z,90.90
2017-08-15T06:06:34.213Z,90.70
2017-08-15T06:09:01.828Z,90.20
2017-08-15T06:11:30.181Z,89.00
2017-08-15T06:14:02.081Z,88.90
2017-08-15T06:16:29.776Z,86.40
2017-08-15T06:18:57.383Z,83.00
2017-08-15T06:21:38.169Z,81.40
2017-08-15T06:24:06.099Z,81.40
2017-08-15T06:26:33.700Z,81.20
2017-08-15T06:29:01.289Z,81.00
2017-08-15T06:34:37.223Z,80.10
2017-08-15T06:37:05.767Z,77.10
2017-08-15T06:39:33.323Z,77.10
2017-08-15T06:42:14.879Z,75.10
2017-08-15T06:44:49.911Z,73.20
2017-08-15T06:49:59.809Z,72.70
2017-08-15T06:52:27.683Z,73.50
2017-08-15T06:54:55.256Z,75.30
2017-08-15T06:57:23.599Z,77.40
2017-08-15T06:59:53.989Z,77.40
2017-08-15T07:02:32.814Z,78.30
2017-08-15T07:05:00.477Z,77.60
2017-08-15T07:07:28.099Z,78.30
2017-08-15T07:09:56.449Z,77.30
2017-08-15T07:12:24.062Z,77.20
2017-08-15T07:14:51.701Z,79.60
2017-08-15T07:17:20.052Z,79.20
2017-08-15T07:19:47.644Z,79.20
2017-08-15T07:22:15.227Z,82.80
2017-08-15T07:24:42.821Z,82.00
2017-08-15T07:27:10.431Z,82.20
2017-08-15T07:29:38.008Z,82.00
2017-08-15T07:34:21.926Z,80.20
2017-08-15T07:36:49.582Z,82.20
2017-08-15T07:39:17.164Z,83.20
2017-08-15T07:41:44.842Z,82.60
2017-08-15T07:44:12.454Z,81.50
2017-08-15T07:46:40.054Z,82.00
2017-08-15T07:49:07.666Z,81.70
2017-08-15T07:51:35.513Z,81.20
2017-08-15T07:54:03.985Z,85.40
2017-08-15T07:56:32.447Z,85.20
2017-08-15T07:59:00.052Z,85.80
2017-08-15T08:01:27.786Z,86.90
2017-08-15T08:03:55.458Z,87.80
2017-08-15T08:06:23.042Z,88.20
2017-08-15T08:08:50.753Z,87.70
2017-08-15T08:11:18.544Z,87.10
2017-08-15T08:13:46.176Z,87.50
2017-08-15T08:16:13.776Z,85.70
2017-08-15T08:18:41.463Z,86.40
2017-08-15T08:21:09.042Z,84.90
2017-08-15T08:23:36.638Z,86.00
2017-08-15T08:26:05.260Z,85.30
2017-08-15T08:28:33.142Z,86.50
2017-08-15T08:31:00.788Z,84.90
2017-08-15T08:33:28.413Z,87.10
2017-08-15T08:35:56.717Z,87.00
2017-08-15T08:38:25.157Z,90.50
2017-08-15T08:40:52.863Z,90.30
2017-08-15T08:43:20.461Z,91.20
2017-08-15T08:45:48.278Z,91.40
2017-08-15T08:48:15.916Z,91.20
2017-08-15T08:50:43.549Z,91.10
2017-08-15T08:53:11.441Z,91.00
2017-08-15T08:55:39.642Z,91.10
2017-08-15T08:58:07.927Z,91.00
2017-08-15T09:00:36.091Z,90.90
2017-08-15T09:03:04.358Z,90.70
2017-08-15T09:05:32.119Z,90.90
2017-08-15T09:08:01.747Z,90.80
2017-08-15T09:10:29.504Z,90.80
2017-08-15T09:12:57.906Z,90.70
2017-08-15T09:15:25.652Z,90.70
2017-08-15T09:17:53.485Z,91.10
2017-08-15T09:20:23.112Z,91.00
2017-08-15T09:22:51.778Z,92.40
2017-08-15T09:25:20.576Z,92.40
2017-08-15T09:27:48.148Z,93.00
2017-08-15T09:30:15.774Z,92.80
2017-08-15T09:32:43.518Z,93.20
2017-08-15T09:35:11.166Z,92.50
2017-08-15T09:37:38.771Z,92.50
2017-08-15T09:40:06.467Z,92.40
2017-08-15T09:42:34.121Z,92.60
2017-08-15T09:45:01.758Z,93.30
2017-08-15T09:47:29.454Z,93.60
2017-08-15T09:49:57.918Z,93.70
2017-08-15T09:52:25.612Z,93.70
2017-08-15T09:54:53.258Z,93.10
2017-08-15T09:57:20.901Z,91.60
2017-08-15T09:59:48.508Z,91.20
2017-08-15T10:02:16.139Z,90.60
2017-08-15T10:04:44.597Z,91.10
2017-08-15T10:07:12.233Z,91.00
2017-08-15T10:09:39.862Z,91.10
2017-08-15T10:12:07.526Z,90.90
2017-08-15T10:14:35.346Z,91.60
2017-08-15T10:17:02.958Z,91.40
2017-08-15T10:19:30.553Z,90.50
2017-08-15T10:21:58.213Z,90.50
2017-08-15T10:24:25.922Z,89.00
2017-08-15T10:26:54.349Z,85.90
2017-08-15T10:29:21.959Z,85.80
2017-08-15T10:31:50.395Z,84.50
2017-08-15T10:34:17.972Z,84.40
2017-08-15T10:36:45.601Z,79.90
2017-08-15T10:39:13.454Z,82.60
2017-08-15T10:41:41.175Z,80.20
2017-08-15T10:44:08.781Z,81.90
2017-08-15T10:46:36.544Z,82.10
2017-08-15T10:49:04.341Z,80.50
2017-08-15T10:51:32.735Z,76.20
2017-08-15T10:54:00.379Z,76.20
2017-08-15T10:56:28.119Z,72.30
2017-08-15T10:58:55.807Z,64.80
2017-08-15T11:01:23.642Z,60.90
2017-08-15T11:03:51.242Z,65.30
2017-08-15T11:06:19.065Z,67.00
2017-08-15T11:08:46.710Z,59.90
2017-08-15T11:11:15.048Z,58.60
2017-08-15T11:13:42.890Z,58.60
2017-08-15T11:16:10.529Z,57.30
2017-08-15T11:18:38.252Z,59.10
2017-08-15T11:21:06.107Z,61.00
2017-08-15T11:23:33.853Z,61.50
2017-08-15T11:26:01.771Z,61.90
2017-08-15T11:28:29.347Z,63.90
2017-08-15T11:30:57.808Z,61.10
2017-08-15T11:39:47.981Z,60.40
2017-08-15T11:42:15.592Z,61.50
2017-08-15T11:44:45.468Z,60.90
2017-08-15T11:47:21.037Z,60.30
2017-08-15T11:49:49.491Z,58.10
2017-08-15T11:52:17.106Z,58.00
2017-08-15T11:54:44.711Z,58.60
2017-08-15T11:57:12.394Z,57.40
2017-08-15T11:59:39.982Z,60.40
2017-08-15T12:02:07.622Z,62.10
2017-08-15T12:04:35.222Z,59.10
2017-08-15T12:07:02.882Z,58.10
2017-08-15T12:09:30.548Z,57.40
2017-08-15T12:11:58.142Z,57.90
2017-08-15T12:14:25.727Z,61.00
2017-08-15T12:16:53.440Z,58.40
2017-08-15T12:19:21.804Z,60.20
2017-08-15T12:21:49.597Z,60.20
2017-08-15T12:24:18.190Z,57.80
2017-08-15T12:26:45.844Z,57.90
2017-08-15T12:29:13.433Z,58.80
2017-08-15T12:31:41.162Z,58.60
2017-08-15T12:34:09.686Z,54.60
2017-08-15T12:36:37.391Z,54.50
2017-08-15T12:39:05.786Z,54.80
2017-08-15T12:41:34.129Z,52.90
2017-08-15T12:44:01.775Z,52.90
2017-08-15T12:46:29.412Z,52.90
2017-08-15T12:48:57.008Z,55.70
2017-08-15T12:51:24.652Z,53.10
2017-08-15T12:53:52.359Z,56.20
2017-08-15T12:56:20.710Z,55.10
2017-08-15T12:58:48.322Z,55.50
2017-08-15T13:01:16.022Z,59.10
2017-08-15T13:03:43.638Z,58.50
2017-08-15T13:06:12.048Z,59.80
2017-08-15T13:08:39.670Z,59.80
2017-08-15T13:11:08.078Z,62.20
2017-08-15T13:13:35.700Z,62.20
2017-08-15T13:16:03.326Z,62.90
2017-08-15T13:18:31.039Z,60.30
2017-08-15T13:20:58.677Z,59.20
2017-08-15T13:23:26.300Z,58.70
2017-08-15T13:25:55.048Z,59.20
2017-08-15T13:28:23.513Z,61.80
2017-08-15T13:30:51.184Z,61.90
2017-08-15T13:33:19.549Z,63.60
2017-08-15T13:35:47.151Z,63.50
2017-08-15T13:38:14.909Z,63.90
2017-08-15T13:40:42.522Z,63.20
2017-08-15T13:43:10.100Z,64.50
2017-08-15T13:45:37.792Z,65.50
2017-08-15T13:48:05.595Z,65.00
2017-08-15T13:50:33.190Z,66.50
2017-08-15T13:53:00.828Z,65.50
2017-08-15T13:55:28.543Z,65.30
2017-08-15T13:57:56.157Z,69.40
2017-08-15T14:00:23.832Z,69.90
2017-08-15T14:02:51.460Z,73.00
2017-08-15T14:05:19.070Z,71.10
2017-08-15T14:07:47.479Z,72.00
2017-08-15T14:10:15.092Z,72.00
2017-08-15T14:12:42.703Z,72.80
2017-08-15T14:15:10.364Z,73.60
2017-08-15T14:17:37.979Z,73.80
2017-08-15T14:20:05.561Z,74.00
2017-08-15T14:22:33.949Z,74.60
2017-08-15T14:25:01.547Z,74.60
2017-08-15T14:27:29.191Z,74.20
2017-08-15T14:29:56.838Z,74.20
2017-08-15T14:32:24.450Z,74.60
2017-08-15T14:34:52.074Z,74.70
2017-08-15T14:37:19.749Z,75.90
2017-08-15T14:39:47.351Z,76.00
2017-08-15T14:42:14.962Z,76.20
2017-08-15T14:44:43.505Z,76.50
2017-08-15T14:47:12.005Z,77.30
2017-08-15T14:49:39.688Z,77.40
2017-08-15T14:52:07.463Z,76.80
2017-08-15T14:54:35.254Z,75.90
2017-08-15T14:57:02.863Z,76.20
2017-08-15T14:59:30.511Z,76.40
2017-08-15T15:01:58.236Z,75.90
2017-08-15T15:04:25.841Z,75.90
2017-08-15T15:06:53.508Z,75.90
2017-08-15T15:09:21.200Z,77.00
2017-08-15T15:11:48.930Z,76.40
2017-08-15T15:14:16.787Z,76.70
2017-08-15T15:16:45.187Z,78.00
2017-08-15T15:19:12.903Z,77.90
2017-08-15T15:21:40.627Z,80.00
2017-08-15T15:24:09.483Z,80.20
2017-08-15T15:26:37.915Z,80.60
2017-08-15T15:29:05.593Z,80.60
2017-08-15T15:31:33.398Z,80.50
2017-08-15T15:34:01.829Z,80.30
2017-08-15T15:36:29.732Z,80.30
2017-08-15T15:38:58.210Z,80.90
2017-08-15T15:41:26.641Z,80.60
2017-08-15T15:43:54.727Z,80.50
2017-08-15T15:46:23.236Z,81.80
2017-08-15T15:48:51.066Z,81.60
2017-08-15T15:51:18.801Z,82.30
2017-08-15T15:53:46.442Z,81.90
2017-08-15T15:56:14.784Z,81.50
2017-08-15T15:58:42.398Z,81.50
2017-08-15T16:01:10.054Z,81.70
2017-08-15T16:03:37.644Z,81.60
2017-08-15T16:06:05.273Z,81.90
2017-08-15T16:08:32.960Z,81.60
2017-08-15T16:11:00.588Z,81.90
2017-08-15T16:13:28.219Z,82.00
2017-08-15T16:15:55.885Z,81.60
2017-08-15T16:18:23.485Z,80.30
2017-08-15T16:20:51.101Z,80.80
2017-08-15T16:23:18.738Z,80.80
2017-08-15T16:25:46.421Z,79.80
2017-08-15T16:28:14.103Z,78.90
2017-08-15T16:30:42.572Z,77.90
2017-08-15T16:33:10.223Z,77.80
2017-08-15T16:35:37.856Z,76.30
2017-08-15T16:38:05.430Z,77.10
2017-08-15T16:40:33.335Z,77.00
2017-08-15T16:43:01.801Z,77.60
2017-08-15T16:45:30.383Z,78.20
2017-08-15T16:47:58.170Z,78.20
2017-08-15T16:50:26.546Z,79.00
2017-08-15T16:52:54.977Z,79.20
2017-08-15T16:55:22.575Z,78.70
2017-08-15T16:57:50.192Z,80.60
2017-08-15T17:00:17.822Z,80.30
2017-08-15T17:02:46.275Z,81.40
2017-08-15T17:05:14.119Z,81.10
2017-08-15T17:07:41.747Z,80.40
2017-08-15T17:10:09.440Z,81.00
2017-08-15T17:12:37.237Z,80.60
2017-08-15T17:15:04.830Z,81.40
2017-08-15T17:17:32.610Z,79.80
2017-08-15T17:20:00.430Z,80.50
2017-08-15T17:22:29.785Z,80.90
2017-08-15T17:24:57.632Z,80.00
2017-08-15T17:27:25.240Z,80.10
2017-08-15T17:29:53.010Z,80.10
2017-08-15T17:32:20.673Z,80.30
2017-08-15T17:34:48.394Z,80.30
2017-08-15T17:37:16.207Z,80.00
2017-08-15T17:39:43.991Z,80.70
2017-08-15T17:42:15.730Z,82.10
2017-08-15T17:44:45.435Z,82.20
2017-08-15T17:47:14.362Z,82.10
2017-08-15T17:49:43.868Z,82.10
2017-08-15T17:52:11.804Z,82.90
2017-08-15T17:54:40.932Z,82.80
2017-08-15T17:57:09.942Z,83.90
2017-08-15T17:59:38.173Z,83.70
2017-08-15T18:02:06.670Z,83.80
2017-08-15T18:04:34.409Z,83.80
2017-08-15T18:07:02.167Z,84.80
2017-08-15T18:09:30.003Z,85.10
2017-08-15T18:11:57.712Z,84.50
2017-08-15T18:14:26.191Z,84.60
2017-08-15T18:16:53.978Z,84.60
2017-08-15T18:19:22.518Z,85.10
2017-08-15T18:21:50.194Z,85.00
2017-08-15T18:24:17.786Z,85.60
2017-08-15T18:26:46.227Z,85.80
2017-08-15T18:29:13.852Z,85.80
2017-08-15T18:31:41.658Z,85.70
2017-08-15T18:34:09.265Z,86.70
2017-08-15T18:36:36.884Z,87.10
2017-08-15T18:39:04.497Z,87.40
2017-08-15T18:41:32.273Z,87.60
2017-08-15T18:43:59.939Z,88.00
2017-08-15T18:46:27.653Z,88.00
2017-08-15T18:48:56.229Z,88.70
2017-08-15T18:51:23.831Z,88.90
2017-08-15T18:53:51.593Z,89.20
2017-08-15T18:56:19.218Z,89.60
2017-08-15T18:58:46.813Z,89.30
2017-08-15T19:01:14.480Z,89.50
2017-08-15T19:03:42.166Z,90.00
2017-08-15T19:06:09.748Z,90.10
2017-08-15T19:08:37.510Z,90.30
2017-08-15T19:11:05.158Z,90.40
2017-08-15T19:13:32.745Z,90.60
2017-08-15T19:32:21.366Z,71.60
2017-08-15T19:35:44.321Z,74.60
2017-08-15T19:38:12.965Z,75.60
2017-08-15T19:41:15.947Z,75.80
2017-08-15T19:43:45.280Z,76.40
2017-08-15T19:46:13.822Z,76.40
2017-08-15T19:51:25.565Z,76.50
2017-08-15T19:53:53.915Z,74.60
2017-08-15T19:58:58.626Z,75.20
2017-08-15T20:01:26.341Z,75.60
2017-08-15T20:03:54.688Z,74.80
2017-08-15T20:06:23.849Z,75.00
2017-08-15T20:08:52.209Z,74.90
2017-08-15T20:11:20.593Z,74.70
2017-08-15T20:13:49.073Z,75.50
2017-08-15T20:16:17.530Z,75.50
2017-08-15T20:18:45.929Z,76.00
2017-08-15T20:21:14.365Z,76.00
2017-08-15T20:23:42.744Z,76.30
2017-08-15T20:26:11.930Z,76.10
2017-08-15T20:28:41.192Z,75.90
2017-08-15T20:31:09.548Z,75.80
2017-08-15T20:33:37.937Z,75.90
2017-08-15T20:36:06.312Z,75.80
2017-08-15T20:38:34.964Z,75.70
2017-08-15T20:41:03.457Z,75.70
2017-08-15T20:43:31.874Z,75.70
2017-08-15T20:46:00.242Z,75.80
2017-08-15T20:48:28.672Z,75.70
2017-08-15T20:50:57.975Z,75.70
2017-08-15T20:53:27.216Z,75.70
2017-08-15T20:55:55.898Z,75.70
2017-08-15T20:58:24.344Z,75.60
2017-08-15T21:00:52.730Z,75.70
2017-08-15T21:03:21.189Z,75.60
2017-08-15T21:05:50.365Z,75.60
2017-08-15T21:08:18.800Z,75.50
2017-08-15T21:10:47.258Z,75.60
2017-08-15T21:13:15.738Z,75.60
2017-08-15T21:15:44.117Z,75.40
2017-08-15T21:18:12.504Z,75.50
2017-08-15T21:20:40.872Z,75.50
2017-08-15T21:23:09.537Z,75.50
2017-08-15T21:25:37.958Z,75.40
2017-08-15T21:28:06.472Z,75.50
2017-08-15T21:30:34.802Z,75.50
2017-08-15T21:33:03.248Z,75.60
2017-08-15T21:35:32.394Z,75.40
2017-08-15T21:38:00.877Z,75.40
2017-08-15T21:40:29.207Z,75.30
2017-08-15T21:42:58.364Z,75.20
2017-08-15T21:45:27.023Z,75.20
2017-08-15T21:47:55.500Z,75.20
2017-08-15T21:50:24.020Z,75.20
2017-08-15T21:52:52.470Z,75.30
2017-08-15T21:55:20.838Z,75.30
2017-08-15T21:57:49.216Z,75.30
2017-08-15T22:00:17.577Z,75.30
2017-08-15T22:02:45.917Z,75.30
2017-08-15T22:05:14.308Z,75.30
2017-08-15T22:07:43.404Z,75.40
2017-08-15T22:10:12.547Z,75.30
2017-08-15T22:12:40.970Z,75.30
2017-08-15T22:15:10.503Z,75.30
2017-08-15T22:17:39.032Z,75.30
2017-08-15T22:20:07.416Z,75.30
2017-08-15T22:22:35.762Z,75.30
2017-08-15T22:25:04.151Z,75.30
2017-08-15T22:27:32.517Z,75.30
2017-08-15T22:30:00.847Z,75.20
2017-08-15T22:32:30.036Z,75.50
2017-08-15T22:34:58.396Z,75.20
2017-08-15T22:37:26.941Z,75.20
2017-08-15T22:39:55.305Z,75.20
2017-08-15T22:42:23.886Z,75.20
2017-08-15T22:44:52.326Z,75.20
2017-08-15T22:47:20.673Z,75.20
2017-08-15T22:49:49.034Z,75.30
2017-08-15T22:52:17.367Z,75.30
2017-08-15T22:54:45.705Z,75.30
2017-08-15T22:57:14.174Z,75.30
2017-08-15T22:59:42.517Z,75.30
2017-08-15T23:02:11.612Z,75.30
2017-08-15T23:04:40.744Z,75.10
2017-08-15T23:07:09.470Z,75.10
2017-08-15T23:09:38.781Z,75.20
2017-08-15T23:12:08.134Z,75.10
2017-08-15T23:14:36.582Z,75.10
2017-08-15T23:17:04.926Z,75.10
2017-08-15T23:19:33.305Z,75.10
2017-08-15T23:22:01.887Z,75.90
2017-08-15T23:24:30.245Z,75.20
2017-08-15T23:26:58.622Z,75.10
2017-08-15T23:29:26.968Z,75.10
2017-08-15T23:31:55.307Z,75.20
2017-08-15T23:34:24.595Z,75.50
2017-08-15T23:36:52.973Z,75.10
2017-08-15T23:39:21.446Z,75.20
2017-08-15T23:41:49.911Z,75.30
2017-08-15T23:44:18.240Z,75.20
2017-08-15T23:46:46.590Z,75.30
2017-08-15T23:49:15.150Z,75.20
2017-08-15T23:51:43.573Z,75.20
2017-08-15T23:54:11.924Z,75.20
2017-08-15T23:56:40.287Z,75.20
2017-08-15T23:59:09.644Z,75.20
